^^
Meteo Knjazevac Station Historical Data
Daily Summary for September 4, 2021 Units:  Both    English   Metric
Daily Weekly Monthly Yearly Custom
  High: Low: Average:
Temperature: 76.8 °F /  24.9 °C 41.7 °F /  5.4 °C 59.5 °F /  15.3 °C
Dew Point: 49.3 °F /  9.6 °C 37.8 °F /  3.2 °C 44.3 °F /  6.8 °C
Humidity: 86% 29% 60%
Wind Speed: 7mph /  11.3km/h - 1.9mph /  3.1km/h
Wind Gust: 12mph /  19.3km/h - -
Wind- - SW
Pressure: 30.24 in /  1023.9 hPa 29.99 in /  1015.5 hPa -
Precipitation: 0.00 in /  0 mm    
Historical Graphs
 
 
Tabular Data for September 4, 2021
Time Temperature Dew Point Pressure Wind Wind Speed Wind Gust Humidity Rainfall Rate (Hourly) solar Conditions
00:00 56.3 °F /  13.5 °C 45.9 °F /  7.7 °C 30.22in /  1023.2hPa Calm   2mph /  3.2km/h 68% 0.00in /  0mm 0 W/m2
00:10 56.1 °F /  13.4 °C 45.3 °F /  7.4 °C 30.22in /  1023.2hPa Calm   2mph /  3.2km/h 67% 0.00in /  0mm 0 W/m2
00:20 55.9 °F /  13.3 °C 44.3 °F /  6.8 °C 30.22in /  1023.2hPa Calm   4mph /  6.4km/h 65% 0.00in /  0mm 0 W/m2
00:30 55.8 °F /  13.2 °C 44.2 °F /  6.8 °C 30.22in /  1023.2hPa Calm   2mph /  3.2km/h 65% 0.00in /  0mm 0 W/m2
00:40 55.6 °F /  13.1 °C 44.8 °F /  7.1 °C 30.22in /  1023.2hPa North 2mph /  3.2km/h 2mph /  3.2km/h 67% 0.00in /  0mm 0 W/m2
00:50 55.2 °F /  12.9 °C 44.4 °F /  6.9 °C 30.22in /  1023.2hPa North 1mph /  1.6km/h 2mph /  3.2km/h 67% 0.00in /  0mm 0 W/m2
01:00 54.9 °F /  12.7 °C 43.3 °F /  6.3 °C 30.22in /  1023.2hPa North 2mph /  3.2km/h 5mph /  8km/h 65% 0.00in /  0mm 0 W/m2
01:10 54.7 °F /  12.6 °C 43.1 °F /  6.2 °C 30.22in /  1023.2hPa North 1mph /  1.6km/h 4mph /  6.4km/h 65% 0.00in /  0mm 0 W/m2
01:20 54.3 °F /  12.4 °C 43.6 °F /  6.4 °C 30.22in /  1023.2hPa NNE 1mph /  1.6km/h 2mph /  3.2km/h 67% 0.00in /  0mm 0 W/m2
01:30 54 °F /  12.2 °C 44 °F /  6.7 °C 30.22in /  1023.2hPa Calm   2mph /  3.2km/h 69% 0.00in /  0mm 0 W/m2
01:40 53.4 °F /  11.9 °C 44.6 °F /  7 °C 30.22in /  1023.2hPa Calm   3mph /  4.8km/h 72% 0.00in /  0mm 0 W/m2
01:50 53.1 °F /  11.7 °C 44.6 °F /  7 °C 30.22in /  1023.2hPa Calm   1mph /  1.6km/h 73% 0.00in /  0mm 0 W/m2
02:00 52.7 °F /  11.5 °C 44.3 °F /  6.8 °C 30.21in /  1022.9hPa NNW 1mph /  1.6km/h 2mph /  3.2km/h 73% 0.00in /  0mm 0 W/m2
02:10 52.2 °F /  11.2 °C 44.1 °F /  6.7 °C 30.21in /  1022.9hPa NE 1mph /  1.6km/h 2mph /  3.2km/h 74% 0.00in /  0mm 0 W/m2
02:20 51.6 °F /  10.9 °C 44 °F /  6.7 °C 30.21in /  1022.9hPa SSE 1mph /  1.6km/h 4mph /  6.4km/h 75% 0.00in /  0mm 0 W/m2
02:30 51.3 °F /  10.7 °C 43.6 °F /  6.4 °C 30.21in /  1022.9hPa South 2mph /  3.2km/h 4mph /  6.4km/h 75% 0.00in /  0mm 0 W/m2
02:40 50.7 °F /  10.4 °C 43.1 °F /  6.2 °C 30.21in /  1022.9hPa South 2mph /  3.2km/h 4mph /  6.4km/h 75% 0.00in /  0mm 0 W/m2
02:50 50.2 °F /  10.1 °C 43.2 °F /  6.2 °C 30.21in /  1022.9hPa SW 1mph /  1.6km/h 3mph /  4.8km/h 77% 0.00in /  0mm 0 W/m2
03:00 49.6 °F /  9.8 °C 42.7 °F /  5.9 °C 30.21in /  1022.9hPa South 1mph /  1.6km/h 4mph /  6.4km/h 77% 0.00in /  0mm 0 W/m2
03:10 49.4 °F /  9.7 °C 42.9 °F /  6.1 °C 30.22in /  1023.2hPa Calm   2mph /  3.2km/h 78% 0.00in /  0mm 0 W/m2
03:20 48.9 °F /  9.4 °C 42.7 °F /  5.9 °C 30.22in /  1023.2hPa Calm   2mph /  3.2km/h 79% 0.00in /  0mm 0 W/m2
03:30 48.6 °F /  9.2 °C 42.7 °F /  5.9 °C 30.22in /  1023.2hPa West 2mph /  3.2km/h 3mph /  4.8km/h 80% 0.00in /  0mm 0 W/m2
03:40 48 °F /  8.9 °C 42.1 °F /  5.6 °C 30.22in /  1023.2hPa WSW 2mph /  3.2km/h 4mph /  6.4km/h 80% 0.00in /  0mm 0 W/m2
03:50 47.5 °F /  8.6 °C 41.9 °F /  5.5 °C 30.22in /  1023.2hPa SW 2mph /  3.2km/h 3mph /  4.8km/h 81% 0.00in /  0mm 0 W/m2
04:00 46.8 °F /  8.2 °C 41.9 °F /  5.5 °C 30.22in /  1023.2hPa WSW 1mph /  1.6km/h 3mph /  4.8km/h 83% 0.00in /  0mm 0 W/m2
04:10 46.2 °F /  7.9 °C 41.3 °F /  5.2 °C 30.22in /  1023.2hPa WNW 3mph /  4.8km/h 6mph /  9.7km/h 83% 0.00in /  0mm 0 W/m2
04:20 46 °F /  7.8 °C 41.2 °F /  5.1 °C 30.22in /  1023.2hPa West 3mph /  4.8km/h 5mph /  8km/h 83% 0.00in /  0mm 0 W/m2
04:30 45.7 °F /  7.6 °C 40.8 °F /  4.9 °C 30.22in /  1023.2hPa West 3mph /  4.8km/h 5mph /  8km/h 83% 0.00in /  0mm 0 W/m2
04:40 45.1 °F /  7.3 °C 40.3 °F /  4.6 °C 30.22in /  1023.2hPa West 2mph /  3.2km/h 6mph /  9.7km/h 83% 0.00in /  0mm 0 W/m2
04:50 44.4 °F /  6.9 °C 39.9 °F /  4.4 °C 30.22in /  1023.2hPa WSW 2mph /  3.2km/h 5mph /  8km/h 84% 0.00in /  0mm 0 W/m2
05:00 43.7 °F /  6.5 °C 39.2 °F /  4 °C 30.22in /  1023.2hPa West 2mph /  3.2km/h 5mph /  8km/h 84% 0.00in /  0mm 0 W/m2
05:10 43.3 °F /  6.3 °C 38.8 °F /  3.8 °C 30.22in /  1023.2hPa WNW 3mph /  4.8km/h 6mph /  9.7km/h 84% 0.00in /  0mm 0 W/m2
05:20 43 °F /  6.1 °C 38.8 °F /  3.8 °C 30.22in /  1023.2hPa West 3mph /  4.8km/h 5mph /  8km/h 85% 0.00in /  0mm 3 W/m2
05:30 42.6 °F /  5.9 °C 38.4 °F /  3.6 °C 30.22in /  1023.2hPa WNW 2mph /  3.2km/h 4mph /  6.4km/h 85% 0.00in /  0mm 9 W/m2
05:40 42.4 °F /  5.8 °C 38.2 °F /  3.4 °C 30.22in /  1023.2hPa West 1mph /  1.6km/h 4mph /  6.4km/h 85% 0.00in /  0mm 17 W/m2
05:50 42.3 °F /  5.7 °C 38.1 °F /  3.4 °C 30.22in /  1023.2hPa WNW 2mph /  3.2km/h 5mph /  8km/h 85% 0.00in /  0mm 27 W/m2
06:00 41.9 °F /  5.5 °C 38 °F /  3.3 °C 30.23in /  1023.6hPa West 2mph /  3.2km/h 5mph /  8km/h 86% 0.00in /  0mm 46 W/m2
06:10 41.9 °F /  5.5 °C 38 °F /  3.3 °C 30.23in /  1023.6hPa WNW 1mph /  1.6km/h 3mph /  4.8km/h 86% 0.00in /  0mm 65 W/m2
06:20 41.7 °F /  5.4 °C 37.8 °F /  3.2 °C 30.23in /  1023.6hPa WNW 1mph /  1.6km/h 3mph /  4.8km/h 86% 0.00in /  0mm 87 W/m2
06:30 41.9 °F /  5.5 °C 38 °F /  3.3 °C 30.24in /  1023.9hPa Calm   2mph /  3.2km/h 86% 0.00in /  0mm 113 W/m2
06:40 42.1 °F /  5.6 °C 38.2 °F /  3.4 °C 30.24in /  1023.9hPa Calm   2mph /  3.2km/h 86% 0.00in /  0mm 141 W/m2
06:50 42.3 °F /  5.7 °C 38.4 °F /  3.6 °C 30.23in /  1023.6hPa Calm   2mph /  3.2km/h 86% 0.00in /  0mm 168 W/m2
07:00 42.5 °F /  5.8 °C 38.6 °F /  3.7 °C 30.24in /  1023.9hPa WNW 1mph /  1.6km/h 2mph /  3.2km/h 86% 0.00in /  0mm 200 W/m2
07:10 42.8 °F /  6 °C 38.9 °F /  3.8 °C 30.23in /  1023.6hPa Calm   2mph /  3.2km/h 86% 0.00in /  0mm 229 W/m2
07:20 43.3 °F /  6.3 °C 39.4 °F /  4.1 °C 30.23in /  1023.6hPa Calm   2mph /  3.2km/h 86% 0.00in /  0mm 267 W/m2
07:30 44.1 °F /  6.7 °C 40.1 °F /  4.5 °C 30.22in /  1023.2hPa Calm   2mph /  3.2km/h 86% 0.00in /  0mm 299 W/m2
07:40 44.8 °F /  7.1 °C 40.6 °F /  4.8 °C 30.22in /  1023.2hPa Calm   2mph /  3.2km/h 85% 0.00in /  0mm 334 W/m2
07:50 45.5 °F /  7.5 °C 41.3 °F /  5.2 °C 30.22in /  1023.2hPa Calm   2mph /  3.2km/h 85% 0.00in /  0mm 368 W/m2
08:00 46.3 °F /  7.9 °C 41.7 °F /  5.4 °C 30.22in /  1023.2hPa Calm   1mph /  1.6km/h 84% 0.00in /  0mm 402 W/m2
08:10 47.2 °F /  8.4 °C 41.6 °F /  5.3 °C 30.21in /  1022.9hPa Calm   2mph /  3.2km/h 81% 0.00in /  0mm 436 W/m2
08:20 48.2 °F /  9 °C 42.4 °F /  5.8 °C 30.21in /  1022.9hPa Calm   3mph /  4.8km/h 80% 0.00in /  0mm 472 W/m2
08:30 49.5 °F /  9.7 °C 43.2 °F /  6.2 °C 30.21in /  1022.9hPa South 2mph /  3.2km/h 3mph /  4.8km/h 79% 0.00in /  0mm 506 W/m2
08:40 50.4 °F /  10.2 °C 43.5 °F /  6.4 °C 30.21in /  1022.9hPa WSW 1mph /  1.6km/h 4mph /  6.4km/h 77% 0.00in /  0mm 552 W/m2
08:50 52.2 °F /  11.2 °C 43.8 °F /  6.6 °C 30.21in /  1022.9hPa SSE 1mph /  1.6km/h 5mph /  8km/h 73% 0.00in /  0mm 518 W/m2
09:00 54.4 °F /  12.4 °C 44 °F /  6.7 °C 30.20in /  1022.6hPa SW 2mph /  3.2km/h 3mph /  4.8km/h 68% 0.00in /  0mm 605 W/m2
09:10 56.2 °F /  13.4 °C 44.1 °F /  6.7 °C 30.20in /  1022.6hPa SW 1mph /  1.6km/h 4mph /  6.4km/h 64% 0.00in /  0mm 635 W/m2
09:20 58 °F /  14.4 °C 44.1 °F /  6.7 °C 30.19in /  1022.2hPa SW 2mph /  3.2km/h 4mph /  6.4km/h 60% 0.00in /  0mm 664 W/m2
09:30 59 °F /  15 °C 42.8 °F /  6 °C 30.19in /  1022.2hPa WSW 3mph /  4.8km/h 6mph /  9.7km/h 55% 0.00in /  0mm 690 W/m2
09:40 59.9 °F /  15.5 °C 43.2 °F /  6.2 °C 30.19in /  1022.2hPa WNW 1mph /  1.6km/h 6mph /  9.7km/h 54% 0.00in /  0mm 714 W/m2
09:50 61 °F /  16.1 °C 43.8 °F /  6.6 °C 30.18in /  1021.9hPa NW 1mph /  1.6km/h 5mph /  8km/h 53% 0.00in /  0mm 737 W/m2
10:00 61.9 °F /  16.6 °C 44.1 °F /  6.7 °C 30.18in /  1021.9hPa NNW 2mph /  3.2km/h 6mph /  9.7km/h 52% 0.00in /  0mm 759 W/m2
10:10 62.4 °F /  16.9 °C 43.5 °F /  6.4 °C 30.18in /  1021.9hPa NW 3mph /  4.8km/h 7mph /  11.3km/h 50% 0.00in /  0mm 779 W/m2
10:20 62.8 °F /  17.1 °C 44.9 °F /  7.2 °C 30.18in /  1021.9hPa West 1mph /  1.6km/h 5mph /  8km/h 52% 0.00in /  0mm 799 W/m2
10:30 63.7 °F /  17.6 °C 43.6 °F /  6.4 °C 30.18in /  1021.9hPa WNW 1mph /  1.6km/h 5mph /  8km/h 48% 0.00in /  0mm 817 W/m2
10:40 64.8 °F /  18.2 °C 44.1 °F /  6.7 °C 30.17in /  1021.6hPa NNE 2mph /  3.2km/h 6mph /  9.7km/h 47% 0.00in /  0mm 116 W/m2
10:50 65.1 °F /  18.4 °C 43.2 °F /  6.2 °C 30.17in /  1021.6hPa WSW 2mph /  3.2km/h 5mph /  8km/h 45% 0.00in /  0mm 849 W/m2
11:00 65.5 °F /  18.6 °C 44.7 °F /  7.1 °C 30.16in /  1021.2hPa WNW 2mph /  3.2km/h 8mph /  12.9km/h 47% 0.00in /  0mm 297 W/m2
11:10 65.8 °F /  18.8 °C 43.9 °F /  6.6 °C 30.16in /  1021.2hPa NE 3mph /  4.8km/h 6mph /  9.7km/h 45% 0.00in /  0mm 575 W/m2
11:20 66.4 °F /  19.1 °C 45.5 °F /  7.5 °C 30.16in /  1021.2hPa NNE 2mph /  3.2km/h 7mph /  11.3km/h 47% 0.00in /  0mm 864 W/m2
11:30 66.4 °F /  19.1 °C 44.4 °F /  6.9 °C 30.16in /  1021.2hPa NNW 2mph /  3.2km/h 6mph /  9.7km/h 45% 0.00in /  0mm 896 W/m2
11:40 67.1 °F /  19.5 °C 44.5 °F /  6.9 °C 30.15in /  1020.9hPa East 2mph /  3.2km/h 7mph /  11.3km/h 44% 0.00in /  0mm 851 W/m2
11:50 67.8 °F /  19.9 °C 45.1 °F /  7.3 °C 30.15in /  1020.9hPa NNE 1mph /  1.6km/h 8mph /  12.9km/h 44% 0.00in /  0mm 798 W/m2
12:00 68.2 °F /  20.1 °C 44.8 °F /  7.1 °C 30.14in /  1020.5hPa East 3mph /  4.8km/h 8mph /  12.9km/h 43% 0.00in /  0mm 915 W/m2
12:10 68.9 °F /  20.5 °C 46.1 °F /  7.8 °C 30.14in /  1020.5hPa NW 2mph /  3.2km/h 8mph /  12.9km/h 44% 0.00in /  0mm 918 W/m2
12:20 69.4 °F /  20.8 °C 46.6 °F /  8.1 °C 30.14in /  1020.5hPa NE 2mph /  3.2km/h 8mph /  12.9km/h 44% 0.00in /  0mm 857 W/m2
12:30 69.4 °F /  20.8 °C 47.2 °F /  8.4 °C 30.13in /  1020.2hPa NNE 1mph /  1.6km/h 7mph /  11.3km/h 45% 0.00in /  0mm 812 W/m2
12:40 69.8 °F /  21 °C 46.3 °F /  7.9 °C 30.13in /  1020.2hPa North 3mph /  4.8km/h 6mph /  9.7km/h 43% 0.00in /  0mm 799 W/m2
12:50 70 °F /  21.1 °C 47.1 °F /  8.4 °C 30.13in /  1020.2hPa NNE 1mph /  1.6km/h 8mph /  12.9km/h 44% 0.00in /  0mm 820 W/m2
13:00 70.4 °F /  21.3 °C 46.8 °F /  8.2 °C 30.12in /  1019.9hPa ENE 3mph /  4.8km/h 8mph /  12.9km/h 43% 0.00in /  0mm 850 W/m2
13:10 71.1 °F /  21.7 °C 47.5 °F /  8.6 °C 30.11in /  1019.5hPa NNW 1mph /  1.6km/h 6mph /  9.7km/h 43% 0.00in /  0mm 836 W/m2
13:20 71.4 °F /  21.9 °C 47.7 °F /  8.7 °C 30.11in /  1019.5hPa NNE 5mph /  8km/h 8mph /  12.9km/h 43% 0.00in /  0mm 748 W/m2
13:30 71.4 °F /  21.9 °C 47.7 °F /  8.7 °C 30.11in /  1019.5hPa NNW 2mph /  3.2km/h 7mph /  11.3km/h 43% 0.00in /  0mm 663 W/m2
13:40 72 °F /  22.2 °C 48.2 °F /  9 °C 30.11in /  1019.5hPa North 2mph /  3.2km/h 6mph /  9.7km/h 43% 0.00in /  0mm 654 W/m2
13:50 72.1 °F /  22.3 °C 48.4 °F /  9.1 °C 30.10in /  1019.2hPa NNW 2mph /  3.2km/h 7mph /  11.3km/h 43% 0.00in /  0mm 786 W/m2
14:00 72.6 °F /  22.6 °C 48.8 °F /  9.3 °C 30.10in /  1019.2hPa WNW 3mph /  4.8km/h 6mph /  9.7km/h 43% 0.00in /  0mm 850 W/m2
14:10 72.3 °F /  22.4 °C 46.6 °F /  8.1 °C 30.09in /  1018.8hPa SE 3mph /  4.8km/h 8mph /  12.9km/h 40% 0.00in /  0mm 834 W/m2
14:20 72.1 °F /  22.3 °C 46.5 °F /  8.1 °C 30.09in /  1018.8hPa NNW 5mph /  8km/h 8mph /  12.9km/h 40% 0.00in /  0mm 818 W/m2
14:30 72.1 °F /  22.3 °C 45.8 °F /  7.7 °C 30.08in /  1018.5hPa SE 2mph /  3.2km/h 6mph /  9.7km/h 39% 0.00in /  0mm 584 W/m2
14:40 72.1 °F /  22.3 °C 46.5 °F /  8.1 °C 30.07in /  1018.2hPa North 1mph /  1.6km/h 6mph /  9.7km/h 40% 0.00in /  0mm 742 W/m2
14:50 73.2 °F /  22.9 °C 47.4 °F /  8.6 °C 30.07in /  1018.2hPa ESE 2mph /  3.2km/h 6mph /  9.7km/h 40% 0.00in /  0mm 759 W/m2
15:00 74.1 °F /  23.4 °C 48.2 °F /  9 °C 30.07in /  1018.2hPa WSW 2mph /  3.2km/h 6mph /  9.7km/h 40% 0.00in /  0mm 738 W/m2
15:10 74.5 °F /  23.6 °C 47.2 °F /  8.4 °C 30.07in /  1018.2hPa West 2mph /  3.2km/h 5mph /  8km/h 38% 0.00in /  0mm 715 W/m2
15:20 74.6 °F /  23.7 °C 47.3 °F /  8.5 °C 30.06in /  1017.8hPa South 2mph /  3.2km/h 7mph /  11.3km/h 38% 0.00in /  0mm 690 W/m2
15:30 74.7 °F /  23.7 °C 48.1 °F /  8.9 °C 30.05in /  1017.5hPa NE 2mph /  3.2km/h 6mph /  9.7km/h 39% 0.00in /  0mm 665 W/m2
15:40 75.3 °F /  24.1 °C 47.9 °F /  8.8 °C 30.05in /  1017.5hPa NW 3mph /  4.8km/h 7mph /  11.3km/h 38% 0.00in /  0mm 639 W/m2
15:50 75.7 °F /  24.3 °C 48.3 °F /  9.1 °C 30.05in /  1017.5hPa WSW 1mph /  1.6km/h 7mph /  11.3km/h 38% 0.00in /  0mm 612 W/m2
16:00 76 °F /  24.4 °C 45.6 °F /  7.6 °C 30.05in /  1017.5hPa WSW 7mph /  11.3km/h 12mph /  19.3km/h 34% 0.00in /  0mm 584 W/m2
16:10 76.3 °F /  24.6 °C 44.2 °F /  6.8 °C 30.04in /  1017.2hPa WSW 6mph /  9.7km/h 12mph /  19.3km/h 32% 0.00in /  0mm 514 W/m2
16:20 76.1 °F /  24.5 °C 44.1 °F /  6.7 °C 30.04in /  1017.2hPa SW 2mph /  3.2km/h 8mph /  12.9km/h 32% 0.00in /  0mm 414 W/m2
16:30 76.2 °F /  24.6 °C 45 °F /  7.2 °C 30.03in /  1016.8hPa SW 3mph /  4.8km/h 7mph /  11.3km/h 33% 0.00in /  0mm 443 W/m2
16:40 76.3 °F /  24.6 °C 45.1 °F /  7.3 °C 30.03in /  1016.8hPa SSW 3mph /  4.8km/h 7mph /  11.3km/h 33% 0.00in /  0mm 454 W/m2
16:50 76.8 °F /  24.9 °C 44.7 °F /  7.1 °C 30.03in /  1016.8hPa South 2mph /  3.2km/h 5mph /  8km/h 32% 0.00in /  0mm 435 W/m2
17:00 76.6 °F /  24.8 °C 42 °F /  5.6 °C 30.03in /  1016.8hPa WSW 3mph /  4.8km/h 8mph /  12.9km/h 29% 0.00in /  0mm 383 W/m2
17:10 76.3 °F /  24.6 °C 47.4 °F /  8.6 °C 30.03in /  1016.8hPa North 6mph /  9.7km/h 9mph /  14.5km/h 36% 0.00in /  0mm 290 W/m2
17:20 75.9 °F /  24.4 °C 48.5 °F /  9.2 °C 30.02in /  1016.5hPa North 2mph /  3.2km/h 7mph /  11.3km/h 38% 0.00in /  0mm 226 W/m2
17:30 75.2 °F /  24 °C 48.5 °F /  9.2 °C 30.02in /  1016.5hPa North 5mph /  8km/h 10mph /  16.1km/h 39% 0.00in /  0mm 148 W/m2
17:40 74.1 °F /  23.4 °C 47.5 °F /  8.6 °C 30.01in /  1016.1hPa North 3mph /  4.8km/h 9mph /  14.5km/h 39% 0.00in /  0mm 171 W/m2
17:50 73.6 °F /  23.1 °C 49.1 °F /  9.5 °C 30.01in /  1016.1hPa North 5mph /  8km/h 8mph /  12.9km/h 42% 0.00in /  0mm 242 W/m2
18:00 73.4 °F /  23 °C 48.9 °F /  9.4 °C 30.01in /  1016.1hPa North 3mph /  4.8km/h 9mph /  14.5km/h 42% 0.00in /  0mm 218 W/m2
18:10 73.2 °F /  22.9 °C 49.3 °F /  9.6 °C 30.01in /  1016.1hPa North 5mph /  8km/h 8mph /  12.9km/h 43% 0.00in /  0mm 114 W/m2
18:20 72.6 °F /  22.6 °C 48.8 °F /  9.3 °C 30.01in /  1016.1hPa NNW 2mph /  3.2km/h 7mph /  11.3km/h 43% 0.00in /  0mm 160 W/m2
18:30 72.4 °F /  22.4 °C 49.3 °F /  9.6 °C 30.00in /  1015.8hPa North 5mph /  8km/h 9mph /  14.5km/h 44% 0.00in /  0mm 132 W/m2
18:40 71.8 °F /  22.1 °C 48.7 °F /  9.3 °C 30.00in /  1015.8hPa North 6mph /  9.7km/h 10mph /  16.1km/h 44% 0.00in /  0mm 96 W/m2
18:50 71.2 °F /  21.8 °C 48.1 °F /  8.9 °C 30.00in /  1015.8hPa NNW 3mph /  4.8km/h 7mph /  11.3km/h 44% 0.00in /  0mm 42 W/m2
19:00 70.3 °F /  21.3 °C 47.9 °F /  8.8 °C 30.00in /  1015.8hPa NNW 3mph /  4.8km/h 8mph /  12.9km/h 45% 0.00in /  0mm 38 W/m2
19:10 69.4 °F /  20.8 °C 47.1 °F /  8.4 °C 30.00in /  1015.8hPa North 5mph /  8km/h 7mph /  11.3km/h 45% 0.00in /  0mm 24 W/m2
19:20 68.5 °F /  20.3 °C 46.3 °F /  7.9 °C 30.00in /  1015.8hPa North 3mph /  4.8km/h 7mph /  11.3km/h 45% 0.00in /  0mm 18 W/m2
19:30 67.7 °F /  19.8 °C 46.8 °F /  8.2 °C 29.99in /  1015.5hPa North 2mph /  3.2km/h 5mph /  8km/h 47% 0.00in /  0mm 4 W/m2
19:40 66.9 °F /  19.4 °C 47.1 °F /  8.4 °C 29.99in /  1015.5hPa SSW 1mph /  1.6km/h 4mph /  6.4km/h 49% 0.00in /  0mm 0 W/m2
19:50 66 °F /  18.9 °C 46.8 °F /  8.2 °C 30.00in /  1015.8hPa WSW 1mph /  1.6km/h 2mph /  3.2km/h 50% 0.00in /  0mm 0 W/m2
20:00 65.2 °F /  18.4 °C 47.2 °F /  8.4 °C 30.00in /  1015.8hPa SW 1mph /  1.6km/h 2mph /  3.2km/h 52% 0.00in /  0mm 0 W/m2
20:10 64.1 °F /  17.8 °C 47.1 °F /  8.4 °C 30.00in /  1015.8hPa SSW 2mph /  3.2km/h 3mph /  4.8km/h 54% 0.00in /  0mm 0 W/m2
20:20 63.1 °F /  17.3 °C 46.6 °F /  8.1 °C 30.00in /  1015.8hPa SW 1mph /  1.6km/h 2mph /  3.2km/h 55% 0.00in /  0mm 0 W/m2
20:30 62.2 °F /  16.8 °C 46.8 °F /  8.2 °C 30.00in /  1015.8hPa SSW 2mph /  3.2km/h 3mph /  4.8km/h 57% 0.00in /  0mm 0 W/m2
20:40 61.3 °F /  16.3 °C 46.9 °F /  8.3 °C 30.00in /  1015.8hPa SW 2mph /  3.2km/h 3mph /  4.8km/h 59% 0.00in /  0mm 0 W/m2
20:50 60.4 °F /  15.8 °C 46 °F /  7.8 °C 30.00in /  1015.8hPa SW 2mph /  3.2km/h 4mph /  6.4km/h 59% 0.00in /  0mm 0 W/m2
21:00 59.8 °F /  15.4 °C 45.9 °F /  7.7 °C 30.01in /  1016.1hPa SW 2mph /  3.2km/h 2mph /  3.2km/h 60% 0.00in /  0mm 0 W/m2
21:10 59.1 °F /  15.1 °C 46.1 °F /  7.8 °C 30.01in /  1016.1hPa SW 1mph /  1.6km/h 2mph /  3.2km/h 62% 0.00in /  0mm 0 W/m2
21:20 58.3 °F /  14.6 °C 45.7 °F /  7.6 °C 30.00in /  1015.8hPa WSW 3mph /  4.8km/h 4mph /  6.4km/h 63% 0.00in /  0mm 0 W/m2
21:30 57.6 °F /  14.2 °C 45.5 °F /  7.5 °C 30.00in /  1015.8hPa West 3mph /  4.8km/h 5mph /  8km/h 64% 0.00in /  0mm 0 W/m2
21:40 56.8 °F /  13.8 °C 44.8 °F /  7.1 °C 30.00in /  1015.8hPa WSW 2mph /  3.2km/h 5mph /  8km/h 64% 0.00in /  0mm 0 W/m2
21:50 56.1 °F /  13.4 °C 44.5 °F /  6.9 °C 30.01in /  1016.1hPa West 3mph /  4.8km/h 5mph /  8km/h 65% 0.00in /  0mm 0 W/m2
22:00 55.6 °F /  13.1 °C 44.8 °F /  7.1 °C 30.01in /  1016.1hPa West 3mph /  4.8km/h 5mph /  8km/h 67% 0.00in /  0mm 0 W/m2
22:10 55.2 °F /  12.9 °C 44.8 °F /  7.1 °C 30.01in /  1016.1hPa West 1mph /  1.6km/h 5mph /  8km/h 68% 0.00in /  0mm 0 W/m2
22:20 54.5 °F /  12.5 °C 44.2 °F /  6.8 °C 30.01in /  1016.1hPa WSW 1mph /  1.6km/h 2mph /  3.2km/h 68% 0.00in /  0mm 0 W/m2
22:30 53.8 °F /  12.1 °C 43.8 °F /  6.6 °C 30.01in /  1016.1hPa West 1mph /  1.6km/h 2mph /  3.2km/h 69% 0.00in /  0mm 0 W/m2
22:40 53.5 °F /  11.9 °C 44 °F /  6.7 °C 30.02in /  1016.5hPa South 1mph /  1.6km/h 3mph /  4.8km/h 70% 0.00in /  0mm 0 W/m2
22:50 53.4 °F /  11.9 °C 44.6 °F /  7 °C 30.01in /  1016.1hPa Calm   4mph /  6.4km/h 72% 0.00in /  0mm 0 W/m2
23:00 53.2 °F /  11.8 °C 44.4 °F /  6.9 °C 30.01in /  1016.1hPa Calm   2mph /  3.2km/h 72% 0.00in /  0mm 0 W/m2
23:10 52.7 °F /  11.5 °C 44.3 °F /  6.8 °C 30.02in /  1016.5hPa Calm   3mph /  4.8km/h 73% 0.00in /  0mm 0 W/m2
23:20 52.3 °F /  11.3 °C 43.9 °F /  6.6 °C 30.02in /  1016.5hPa NW 1mph /  1.6km/h 3mph /  4.8km/h 73% 0.00in /  0mm 0 W/m2
23:30 51.7 °F /  10.9 °C 43.7 °F /  6.5 °C 30.02in /  1016.5hPa WNW 1mph /  1.6km/h 2mph /  3.2km/h 74% 0.00in /  0mm 0 W/m2
23:40 50.9 °F /  10.5 °C 42.9 °F /  6.1 °C 30.01in /  1016.1hPa West 2mph /  3.2km/h 3mph /  4.8km/h 74% 0.00in /  0mm 0 W/m2
23:50 50.4 °F /  10.2 °C 42.7 °F /  5.9 °C 30.01in /  1016.1hPa Calm   2mph /  3.2km/h 75% 0.00in /  0mm 0 W/m2
Knjazevac, Serbia
Compliments of Weather Underground - 2 mb